createdAt,value
2022-12-19T00:01:07.051Z,1.77
2022-12-19T00:03:35.071Z,1.53
2022-12-19T00:06:05.605Z,1.70
2022-12-19T00:08:34.487Z,1.80
2022-12-19T00:11:04.044Z,1.40
2022-12-19T00:13:40.797Z,2.00
2022-12-19T00:16:11.996Z,1.73
2022-12-19T00:18:40.469Z,1.63
2022-12-19T00:21:12.427Z,1.70
2022-12-19T00:23:40.593Z,1.47
2022-12-19T00:26:11.220Z,1.40
2022-12-19T00:28:39.617Z,1.30
2022-12-19T00:31:07.776Z,1.47
2022-12-19T00:33:37.476Z,1.40
2022-12-19T00:36:14.182Z,1.10
2022-12-19T00:38:45.418Z,1.07
2022-12-19T00:41:15.061Z,1.10
2022-12-19T00:43:44.077Z,1.10
2022-12-19T00:46:13.924Z,1.23
2022-12-19T00:48:43.959Z,1.42
2022-12-19T00:51:15.800Z,1.53
2022-12-19T00:53:44.310Z,1.10
2022-12-19T00:56:14.379Z,1.33
2022-12-19T00:58:46.844Z,1.20
2022-12-19T01:01:17.829Z,1.40
2022-12-19T01:04:04.244Z,1.70
2022-12-19T01:06:35.659Z,1.20
2022-12-19T01:09:04.130Z,1.33
2022-12-19T01:11:49.701Z,1.07
2022-12-19T01:14:22.958Z,1.10
2022-12-19T01:16:51.527Z,1.17
2022-12-19T01:19:19.934Z,1.37
2022-12-19T01:21:49.715Z,1.27
2022-12-19T01:24:18.969Z,1.50
2022-12-19T01:26:50.747Z,0.90
2022-12-19T01:29:19.001Z,1.50
2022-12-19T01:31:48.931Z,0.90
2022-12-19T01:34:17.141Z,1.40
2022-12-19T01:36:45.220Z,1.03
2022-12-19T01:39:14.628Z,1.30
2022-12-19T01:41:42.554Z,1.20
2022-12-19T01:44:12.775Z,1.67
2022-12-19T01:47:30.915Z,1.27
2022-12-19T01:49:59.091Z,1.17
2022-12-19T01:52:27.305Z,1.77
2022-12-19T01:54:58.047Z,1.63
2022-12-19T01:57:27.116Z,1.33
2022-12-19T01:59:58.536Z,1.40
2022-12-19T02:02:30.644Z,1.23
2022-12-19T02:04:58.821Z,1.52
2022-12-19T02:07:27.682Z,1.50
2022-12-19T02:09:58.039Z,1.30
2022-12-19T02:12:38.379Z,1.77
2022-12-19T02:15:10.923Z,1.83
2022-12-19T02:17:52.736Z,1.40
2022-12-19T02:20:52.247Z,3.03
2022-12-19T02:23:41.564Z,2.10
2022-12-19T02:26:38.979Z,1.63
2022-12-19T02:29:22.995Z,1.63
2022-12-19T02:31:59.705Z,1.93
2022-12-19T02:34:34.349Z,1.90
2022-12-19T02:37:10.039Z,1.70
2022-12-19T02:39:46.623Z,2.30
2022-12-19T02:42:23.649Z,1.67
2022-12-19T02:44:55.621Z,2.55
2022-12-19T02:47:25.853Z,2.30
2022-12-19T02:49:53.913Z,2.35
2022-12-19T02:52:49.951Z,2.95
2022-12-19T02:55:25.457Z,2.15
2022-12-19T02:58:35.088Z,2.15
2022-12-19T03:01:15.166Z,2.25
2022-12-19T03:03:56.515Z,1.90
2022-12-19T03:06:32.996Z,1.50
2022-12-19T03:09:08.208Z,2.03
2022-12-19T03:11:40.145Z,1.75
2022-12-19T03:14:12.250Z,1.40
2022-12-19T03:16:40.997Z,2.00
2022-12-19T03:19:13.047Z,1.73
2022-12-19T03:21:44.318Z,2.40
2022-12-19T03:24:14.326Z,2.38
2022-12-19T03:26:49.416Z,2.42
2022-12-19T03:29:23.887Z,2.53
2022-12-19T03:31:53.252Z,2.20
2022-12-19T03:34:27.880Z,3.38
2022-12-19T03:36:58.267Z,2.67
2022-12-19T03:39:29.502Z,2.55
2022-12-19T03:42:17.073Z,2.10
2022-12-19T03:44:45.596Z,3.42
2022-12-19T03:47:18.478Z,2.70
2022-12-19T03:49:48.965Z,3.05
2022-12-19T03:52:27.483Z,2.70
2022-12-19T03:55:05.502Z,2.70
2022-12-19T03:57:40.898Z,2.92
2022-12-19T04:00:12.815Z,2.80
2022-12-19T04:02:46.089Z,2.70
2022-12-19T04:05:19.273Z,2.65
2022-12-19T04:07:49.145Z,3.00
2022-12-19T04:10:21.485Z,2.30
2022-12-19T04:12:55.367Z,2.40
2022-12-19T04:15:30.676Z,2.17
2022-12-19T04:18:00.853Z,2.40
2022-12-19T04:20:31.498Z,2.27
2022-12-19T04:23:05.011Z,2.25
2022-12-19T04:25:37.987Z,1.65
2022-12-19T04:28:14.203Z,2.47
2022-12-19T04:30:44.066Z,1.88
2022-12-19T04:33:12.166Z,1.85
2022-12-19T04:35:41.579Z,1.60
2022-12-19T04:38:11.762Z,2.20
2022-12-19T04:40:41.767Z,1.63
2022-12-19T04:43:10.305Z,2.45
2022-12-19T04:45:38.333Z,1.95
2022-12-19T04:48:08.132Z,1.95
2022-12-19T04:50:37.353Z,2.10
2022-12-19T04:53:07.667Z,2.35
2022-12-19T04:55:36.799Z,2.20
2022-12-19T04:58:05.817Z,2.28
2022-12-19T05:00:34.408Z,1.80
2022-12-19T05:03:02.653Z,1.40
2022-12-19T05:05:30.949Z,1.38
2022-12-19T05:07:58.966Z,2.28
2022-12-19T05:10:28.443Z,1.52
2022-12-19T05:12:56.460Z,1.40
2022-12-19T05:15:24.630Z,1.38
2022-12-19T05:17:52.768Z,1.15
2022-12-19T05:20:20.851Z,1.20
2022-12-19T05:22:48.885Z,1.60
2022-12-19T05:25:16.960Z,1.23
2022-12-19T05:27:46.345Z,0.98
2022-12-19T05:30:14.886Z,1.20
2022-12-19T05:32:42.925Z,1.15
2022-12-19T05:35:10.909Z,1.85
2022-12-19T05:37:38.937Z,1.33
2022-12-19T05:40:08.173Z,1.40
2022-12-19T05:42:36.239Z,1.38
2022-12-19T05:45:06.121Z,2.15
2022-12-19T05:47:34.089Z,1.20
2022-12-19T05:50:02.128Z,1.35
2022-12-19T05:52:30.198Z,1.38
2022-12-19T05:54:58.300Z,1.52
2022-12-19T05:57:27.118Z,1.55
2022-12-19T05:59:55.126Z,1.50
2022-12-19T06:02:24.866Z,0.95
2022-12-19T06:04:52.976Z,1.20
2022-12-19T06:07:21.424Z,1.42
2022-12-19T06:09:49.493Z,1.58
2022-12-19T06:12:17.527Z,0.93
2022-12-19T06:14:45.513Z,1.25
2022-12-19T06:17:13.535Z,1.17
2022-12-19T06:19:42.896Z,1.50
2022-12-19T06:22:10.933Z,0.95
2022-12-19T06:24:41.929Z,1.38
2022-12-19T06:27:10.034Z,1.10
2022-12-19T06:29:38.047Z,1.02
2022-12-19T06:32:06.299Z,1.20
2022-12-19T06:35:03.246Z,1.55
2022-12-19T06:37:26.273Z,1.58
2022-12-19T06:39:54.314Z,1.80
2022-12-19T06:42:24.320Z,1.10
2022-12-19T06:48:59.058Z,1.63
2022-12-19T06:51:27.023Z,2.10
2022-12-19T06:53:56.689Z,2.00
2022-12-19T06:56:25.052Z,1.95
2022-12-19T06:58:53.091Z,1.75
2022-12-19T07:01:24.579Z,1.67
2022-12-19T07:03:53.268Z,1.30
2022-12-19T07:06:21.564Z,1.50
2022-12-19T07:08:49.688Z,1.58
2022-12-19T07:11:19.093Z,2.40
2022-12-19T07:13:47.124Z,1.58
2022-12-19T07:16:15.176Z,2.55
2022-12-19T07:18:46.166Z,1.77
2022-12-19T07:21:14.243Z,1.60
2022-12-19T07:23:42.663Z,1.70
2022-12-19T07:26:10.953Z,1.83
2022-12-19T07:28:40.653Z,1.27
2022-12-19T07:31:08.652Z,1.33
2022-12-19T07:33:36.800Z,1.40
2022-12-19T07:36:05.328Z,1.55
2022-12-19T07:38:33.281Z,1.30
2022-12-19T07:41:02.320Z,1.20
2022-12-19T07:43:30.612Z,1.25
2022-12-19T07:46:00.025Z,1.20
2022-12-19T07:48:29.119Z,1.95
2022-12-19T07:50:57.103Z,2.00
2022-12-19T07:53:25.579Z,1.08
2022-12-19T07:55:54.112Z,1.25
2022-12-19T07:58:22.133Z,1.05
2022-12-19T08:00:55.464Z,1.25
2022-12-19T08:03:25.341Z,1.05
2022-12-19T08:05:53.408Z,1.20
2022-12-19T08:08:21.521Z,1.10
2022-12-19T08:10:49.555Z,1.20
2022-12-19T08:13:17.555Z,1.35
2022-12-19T08:15:45.833Z,1.80
2022-12-19T08:18:13.773Z,1.50
2022-12-19T08:20:45.496Z,1.75
2022-12-19T08:23:13.569Z,2.45
2022-12-19T08:25:41.638Z,1.58
2022-12-19T08:28:09.737Z,1.92
2022-12-19T08:30:39.724Z,1.75
2022-12-19T08:33:08.548Z,2.20
2022-12-19T08:35:37.038Z,2.25
2022-12-19T08:38:06.621Z,1.67
2022-12-19T08:40:35.335Z,2.95
2022-12-19T08:43:03.389Z,2.10
2022-12-19T08:45:31.496Z,1.92
2022-12-19T08:47:59.502Z,2.30
2022-12-19T08:50:27.576Z,2.13
2022-12-19T08:52:55.619Z,2.08
2022-12-19T08:55:25.490Z,1.90
2022-12-19T08:57:55.552Z,2.17
2022-12-19T09:00:24.496Z,2.53
2022-12-19T09:02:53.779Z,2.13
2022-12-19T09:06:00.497Z,2.10
2022-12-19T09:08:09.923Z,2.60
2022-12-19T09:10:39.662Z,1.90
2022-12-19T09:13:07.606Z,2.33
2022-12-19T09:15:35.556Z,2.15
2022-12-19T09:18:05.375Z,3.13
2022-12-19T09:20:33.676Z,2.17
2022-12-19T09:23:01.881Z,1.65
2022-12-19T09:25:29.834Z,5.28
2022-12-19T09:28:27.044Z,1.80
2022-12-19T09:30:47.591Z,1.65
2022-12-19T09:33:16.103Z,1.92
2022-12-19T09:35:51.195Z,2.13
2022-12-19T09:38:20.881Z,2.42
2022-12-19T09:41:00.149Z,1.95
2022-12-19T09:43:41.580Z,1.67
2022-12-19T09:46:17.642Z,2.53
2022-12-19T09:48:54.253Z,2.00
2022-12-19T09:51:34.265Z,1.92
2022-12-19T09:54:07.262Z,1.50
2022-12-19T09:56:45.759Z,1.52
2022-12-19T09:59:33.215Z,1.27
2022-12-19T10:02:27.180Z,1.33
2022-12-19T10:05:17.815Z,1.58
2022-12-19T10:08:08.330Z,1.50
2022-12-19T10:12:42.763Z,0.98
2022-12-19T10:13:53.883Z,1.10
2022-12-19T10:16:32.807Z,1.05
2022-12-19T10:19:04.068Z,1.63
2022-12-19T10:24:41.863Z,1.70
2022-12-19T10:27:19.061Z,2.15
2022-12-19T10:30:02.380Z,2.00
2022-12-19T10:32:40.773Z,1.80
2022-12-19T10:35:14.758Z,1.80
2022-12-19T10:37:52.200Z,2.42
2022-12-19T10:40:29.454Z,1.75
2022-12-19T10:43:10.334Z,2.45
2022-12-19T10:45:44.151Z,1.77
2022-12-19T10:48:20.881Z,2.22
2022-12-19T10:50:53.634Z,1.77
2022-12-19T10:53:27.790Z,1.83
2022-12-19T10:56:01.006Z,2.15
2022-12-19T10:58:33.674Z,2.35
2022-12-19T11:01:14.531Z,2.30
2022-12-19T11:03:46.945Z,1.98
2022-12-19T11:06:49.563Z,1.98
2022-12-19T11:09:24.091Z,1.88
2022-12-19T11:13:20.388Z,2.20
2022-12-19T11:20:48.582Z,2.03
2022-12-19T11:26:32.403Z,1.70
2022-12-19T11:29:16.963Z,1.42
2022-12-19T11:29:36.673Z,1.35
2022-12-19T11:29:38.941Z,1.38
2022-12-19T11:30:44.319Z,1.55
2022-12-19T11:34:38.399Z,1.75
2022-12-19T11:37:16.989Z,1.77
2022-12-19T11:39:49.537Z,2.08
2022-12-19T11:42:24.772Z,2.53
2022-12-19T11:45:01.617Z,3.20
2022-12-19T11:47:38.210Z,2.80
2022-12-19T11:50:16.405Z,2.20
2022-12-19T11:53:14.648Z,1.80
2022-12-19T11:55:45.745Z,2.20
2022-12-19T11:58:14.554Z,3.00
2022-12-19T12:00:51.234Z,2.22
2022-12-19T12:03:49.552Z,3.30
2022-12-19T12:06:34.506Z,3.35
2022-12-19T12:11:45.111Z,2.75
2022-12-19T12:19:21.863Z,2.53
2022-12-19T12:24:09.004Z,2.40
2022-12-19T12:30:47.674Z,2.60
2022-12-19T12:31:16.048Z,3.42
2022-12-19T12:31:42.778Z,2.67
2022-12-19T12:32:03.747Z,2.50
2022-12-19T12:32:04.346Z,2.65
2022-12-19T12:35:28.677Z,3.67
2022-12-19T12:38:12.271Z,2.33
2022-12-19T12:39:24.306Z,2.55
2022-12-19T12:42:06.512Z,2.67
2022-12-19T12:44:42.936Z,3.75
2022-12-19T12:47:20.464Z,4.15
2022-12-19T12:49:52.803Z,2.55
2022-12-19T12:52:25.206Z,2.90
2022-12-19T12:54:54.732Z,3.63
2022-12-19T12:57:37.050Z,3.45
2022-12-19T13:00:21.987Z,3.28
2022-12-19T13:02:55.628Z,2.72
2022-12-19T13:05:52.077Z,2.72
2022-12-19T13:08:40.826Z,2.50
2022-12-19T13:11:36.042Z,2.05
2022-12-19T13:14:06.353Z,2.67
2022-12-19T13:16:53.027Z,2.47
2022-12-19T13:19:28.551Z,3.13
2022-12-19T13:22:40.445Z,2.85
2022-12-19T13:27:58.770Z,3.50
2022-12-19T13:30:31.061Z,3.10
2022-12-19T13:33:11.011Z,2.55
2022-12-19T13:36:57.698Z,3.35
2022-12-19T13:39:54.781Z,2.33
2022-12-19T13:42:01.274Z,3.08
2022-12-19T13:44:30.182Z,2.17
2022-12-19T13:47:00.000Z,3.13
2022-12-19T13:49:34.840Z,2.33
2022-12-19T13:52:05.478Z,2.13
2022-12-19T13:54:38.164Z,2.27
2022-12-19T13:57:22.113Z,2.63
2022-12-19T13:59:59.946Z,2.88
2022-12-19T14:02:43.893Z,2.83
2022-12-19T14:05:34.028Z,2.25
2022-12-19T14:08:20.287Z,2.30
2022-12-19T14:11:35.466Z,2.03
2022-12-19T14:14:10.743Z,2.47
2022-12-19T14:16:44.981Z,2.00
2022-12-19T14:19:25.269Z,2.55
2022-12-19T14:22:11.469Z,2.05
2022-12-19T14:24:42.143Z,1.85
2022-12-19T14:28:21.003Z,2.00
2022-12-19T14:30:29.716Z,2.15
2022-12-19T14:33:39.399Z,1.60
2022-12-19T14:36:12.519Z,2.40
2022-12-19T14:39:27.055Z,1.85
2022-12-19T14:42:01.446Z,2.50
2022-12-19T14:53:51.783Z,1.77
2022-12-19T14:54:12.863Z,2.17
2022-12-19T14:54:26.180Z,2.08
2022-12-19T14:54:28.465Z,3.75
2022-12-19T14:56:33.630Z,2.65
2022-12-19T15:01:33.267Z,3.08
2022-12-19T15:04:52.057Z,2.47
2022-12-19T15:07:08.032Z,3.05
2022-12-19T15:11:08.134Z,3.33
2022-12-19T15:14:48.217Z,2.88
2022-12-19T15:15:59.192Z,2.55
2022-12-19T15:18:34.884Z,3.17
2022-12-19T15:21:05.518Z,2.88
2022-12-19T15:23:33.845Z,2.65
2022-12-19T15:26:06.912Z,2.25
2022-12-19T15:28:41.496Z,3.10
2022-12-19T15:31:21.773Z,2.63
2022-12-19T15:34:32.505Z,2.15
2022-12-19T15:36:39.149Z,1.55
2022-12-19T15:39:07.101Z,2.67
2022-12-19T15:41:36.846Z,2.13
2022-12-19T15:44:09.891Z,5.63
2022-12-19T15:46:44.477Z,2.40
2022-12-19T15:49:18.078Z,2.45
2022-12-19T15:51:46.865Z,2.42
2022-12-19T15:54:48.019Z,2.00
2022-12-19T15:57:04.684Z,2.10
2022-12-19T15:59:38.104Z,2.60
2022-12-19T16:02:17.524Z,2.25
2022-12-19T16:04:47.451Z,2.42
2022-12-19T16:07:17.198Z,2.35
2022-12-19T16:09:45.285Z,2.40
2022-12-19T16:12:19.339Z,2.80
2022-12-19T16:14:50.490Z,3.58
2022-12-19T16:17:22.246Z,2.60
2022-12-19T16:19:51.591Z,2.72
2022-12-19T16:22:22.537Z,3.40
2022-12-19T16:27:24.154Z,3.08
2022-12-19T16:29:52.882Z,2.58
2022-12-19T16:32:23.964Z,2.40
2022-12-19T16:34:52.676Z,3.25
2022-12-19T16:37:27.169Z,3.90
2022-12-19T16:39:58.339Z,2.58
2022-12-19T16:42:28.378Z,2.65
2022-12-19T16:44:56.802Z,2.67
2022-12-19T16:47:24.858Z,3.47
2022-12-19T16:49:53.133Z,2.28
2022-12-19T16:52:21.092Z,2.95
2022-12-19T16:54:49.296Z,2.88
2022-12-19T16:57:20.885Z,2.35
2022-12-19T16:59:51.399Z,2.38
2022-12-19T17:02:44.738Z,3.50
2022-12-19T17:05:18.616Z,3.00
2022-12-19T17:07:47.081Z,3.80
2022-12-19T17:10:16.181Z,3.80
2022-12-19T17:12:47.919Z,2.80
2022-12-19T17:15:26.327Z,5.65
2022-12-19T17:17:57.066Z,3.38
2022-12-19T17:20:27.997Z,3.90
2022-12-19T17:22:56.065Z,3.80
2022-12-19T17:25:25.673Z,4.10
2022-12-19T17:27:55.371Z,3.08
2022-12-19T17:30:24.828Z,3.88
2022-12-19T17:32:56.271Z,3.53
2022-12-19T17:35:28.184Z,3.75
2022-12-19T17:37:58.231Z,3.42
2022-12-19T17:40:28.858Z,3.28
2022-12-19T17:42:57.503Z,4.05
2022-12-19T17:45:29.434Z,4.55
2022-12-19T17:48:03.097Z,3.50
2022-12-19T17:50:35.871Z,3.33
2022-12-19T17:53:03.964Z,3.53
2022-12-19T17:55:33.402Z,3.38
2022-12-19T17:58:01.488Z,2.72
2022-12-19T18:00:33.551Z,5.60
2022-12-19T18:03:27.829Z,3.83
2022-12-19T18:05:57.188Z,5.00
2022-12-19T18:08:27.951Z,4.25
2022-12-19T18:10:57.519Z,4.65
2022-12-19T18:13:50.845Z,3.42
2022-12-19T18:16:23.799Z,3.13
2022-12-19T18:18:52.014Z,4.47
2022-12-19T18:21:24.200Z,4.55
2022-12-19T18:23:52.478Z,3.78
2022-12-19T18:26:20.523Z,4.82
2022-12-19T18:28:49.937Z,4.28
2022-12-19T18:31:23.112Z,4.00
2022-12-19T18:33:51.830Z,3.95
2022-12-19T18:36:21.917Z,4.63
2022-12-19T18:39:22.455Z,4.15
2022-12-19T18:41:51.239Z,3.33
2022-12-19T18:44:19.650Z,4.65
2022-12-19T18:46:50.478Z,4.47
2022-12-19T18:49:19.677Z,3.40
2022-12-19T18:51:48.199Z,5.32
2022-12-19T18:54:20.959Z,3.70
2022-12-19T18:56:49.420Z,3.33
2022-12-19T18:59:17.547Z,3.95
2022-12-19T19:01:47.733Z,4.47
2022-12-19T19:09:11.970Z,5.40
2022-12-19T19:12:02.479Z,4.82
2022-12-19T19:14:30.756Z,4.78
2022-12-19T19:16:58.767Z,5.15
2022-12-19T19:19:26.978Z,5.05
2022-12-19T19:21:55.491Z,5.78
2022-12-19T19:24:25.839Z,4.88
2022-12-19T19:26:53.918Z,5.35
2022-12-19T19:29:21.917Z,10.02
2022-12-19T19:31:53.810Z,6.00
2022-12-19T19:34:26.866Z,8.65
2022-12-19T19:36:58.303Z,4.65
2022-12-19T19:39:28.750Z,5.03
2022-12-19T19:41:57.152Z,5.65
2022-12-19T19:44:25.181Z,3.47
2022-12-19T19:46:53.470Z,4.30
2022-12-19T19:49:21.971Z,4.20
2022-12-19T19:51:50.111Z,6.45
2022-12-19T19:54:19.261Z,4.63
2022-12-19T19:57:37.715Z,4.43
2022-12-19T20:00:09.838Z,3.88
2022-12-19T20:02:43.586Z,3.95
2022-12-19T20:05:12.372Z,4.43
2022-12-19T20:07:40.596Z,4.30
2022-12-19T20:10:10.616Z,4.38
2022-12-19T20:12:39.741Z,4.53
2022-12-19T20:15:10.940Z,3.38
2022-12-19T20:17:39.045Z,4.30
2022-12-19T20:20:08.633Z,6.05
2022-12-19T20:22:36.743Z,4.50
2022-12-19T20:25:05.171Z,5.05
2022-12-19T20:27:33.173Z,4.75
2022-12-19T20:30:01.293Z,3.30
2022-12-19T20:32:31.537Z,3.65
2022-12-19T20:34:59.775Z,3.60
2022-12-19T20:37:27.830Z,3.95
2022-12-19T20:39:55.871Z,3.80
2022-12-19T20:42:23.866Z,5.07
2022-12-19T20:45:42.842Z,4.28
2022-12-19T20:48:12.554Z,4.75
2022-12-19T20:51:30.699Z,4.10
2022-12-19T20:53:58.828Z,3.90
2022-12-19T20:56:27.006Z,3.35
2022-12-19T20:58:55.399Z,4.10
2022-12-19T21:01:25.628Z,4.00
2022-12-19T21:03:55.255Z,3.88
2022-12-19T21:06:26.997Z,3.40
2022-12-19T21:08:57.080Z,3.78
2022-12-19T21:11:26.731Z,4.07
2022-12-19T21:13:54.967Z,5.28
2022-12-19T21:16:24.772Z,4.15
2022-12-19T21:18:53.249Z,4.30
2022-12-19T21:21:24.944Z,4.10
2022-12-19T21:23:54.014Z,3.88
2022-12-19T21:26:23.785Z,4.95
2022-12-19T21:28:52.224Z,3.33
2022-12-19T21:31:22.102Z,3.28
2022-12-19T21:33:51.231Z,4.10
2022-12-19T21:36:23.986Z,3.70
2022-12-19T21:38:54.540Z,2.95
2022-12-19T21:41:23.191Z,4.43
2022-12-19T21:43:53.979Z,3.65
2022-12-19T21:46:24.241Z,3.40
2022-12-19T21:48:54.367Z,3.65
2022-12-19T21:51:26.333Z,3.73
2022-12-19T21:53:55.962Z,3.35
2022-12-19T21:56:26.381Z,3.20
2022-12-19T21:58:56.650Z,4.03
2022-12-19T22:01:26.196Z,2.75
2022-12-19T22:03:58.710Z,3.88
2022-12-19T22:06:31.170Z,2.85
2022-12-19T22:08:59.613Z,3.38
2022-12-19T22:11:28.427Z,3.47
2022-12-19T22:13:57.511Z,2.78
2022-12-19T22:16:25.505Z,3.45
2022-12-19T22:18:55.010Z,2.85
2022-12-19T22:21:23.380Z,3.97
2022-12-19T22:23:57.750Z,2.78
2022-12-19T22:26:27.140Z,2.95
2022-12-19T22:28:56.378Z,3.10
2022-12-19T22:31:26.497Z,2.88
2022-12-19T22:33:56.332Z,4.47
2022-12-19T22:36:28.679Z,3.20
2022-12-19T22:39:00.226Z,3.88
2022-12-19T22:41:28.872Z,2.90
2022-12-19T22:43:57.949Z,2.65
2022-12-19T22:46:27.512Z,2.70
2022-12-19T22:48:57.790Z,3.13
2022-12-19T22:51:26.716Z,2.92
2022-12-19T22:53:55.451Z,2.30
2022-12-19T22:56:27.381Z,2.95
2022-12-19T22:58:57.703Z,2.25
2022-12-19T23:01:27.883Z,2.55
2022-12-19T23:03:57.866Z,3.63
2022-12-19T23:06:27.944Z,1.95
2022-12-19T23:08:56.438Z,2.30
2022-12-19T23:11:29.167Z,2.10
2022-12-19T23:13:57.382Z,2.25
2022-12-19T23:16:25.538Z,2.40
2022-12-19T23:18:53.618Z,2.35
2022-12-19T23:21:23.961Z,2.20
2022-12-19T23:23:53.857Z,2.28
2022-12-19T23:26:28.677Z,1.92
2022-12-19T23:28:58.649Z,2.90
2022-12-19T23:31:28.118Z,2.58
2022-12-19T23:33:58.498Z,2.10
2022-12-19T23:37:08.395Z,3.17
2022-12-19T23:39:15.459Z,2.20
2022-12-19T23:41:44.919Z,2.50
2022-12-19T23:44:13.228Z,2.10
2022-12-19T23:46:42.325Z,2.22
2022-12-19T23:49:11.395Z,2.53
2022-12-19T23:51:39.522Z,2.42
2022-12-19T23:54:08.770Z,2.28
2022-12-19T23:56:37.268Z,2.10
2022-12-19T23:59:06.827Z,2.10
